sensor_id;sensor_type;location;lat;lon;timestamp;temperature;humidity
67799;SHT30;54596;43.216;27.904;2023-11-21T00:01:17;5.84;89.62
67799;SHT30;54596;43.216;27.904;2023-11-21T00:03:43;5.87;89.59
67799;SHT30;54596;43.216;27.904;2023-11-21T00:06:09;5.81;89.50
67799;SHT30;54596;43.216;27.904;2023-11-21T00:08:35;5.79;89.57
67799;SHT30;54596;43.216;27.904;2023-11-21T00:11:01;5.78;89.65
67799;SHT30;54596;43.216;27.904;2023-11-21T00:13:26;5.74;89.75
67799;SHT30;54596;43.216;27.904;2023-11-21T00:15:52;5.75;89.75
67799;SHT30;54596;43.216;27.904;2023-11-21T00:18:18;5.70;89.92
67799;SHT30;54596;43.216;27.904;2023-11-21T00:23:29;5.57;90.16
67799;SHT30;54596;43.216;27.904;2023-11-21T00:25:54;5.51;90.34
67799;SHT30;54596;43.216;27.904;2023-11-21T00:28:20;5.46;90.56
67799;SHT30;54596;43.216;27.904;2023-11-21T00:30:45;5.42;90.56
67799;SHT30;54596;43.216;27.904;2023-11-21T00:33:11;5.39;90.51
67799;SHT30;54596;43.216;27.904;2023-11-21T00:35:36;5.30;90.78
67799;SHT30;54596;43.216;27.904;2023-11-21T00:38:02;5.22;90.71
67799;SHT30;54596;43.216;27.904;2023-11-21T00:40:28;5.18;90.82
67799;SHT30;54596;43.216;27.904;2023-11-21T00:42:54;5.15;90.87
67799;SHT30;54596;43.216;27.904;2023-11-21T00:45:21;5.11;91.10
67799;SHT30;54596;43.216;27.904;2023-11-21T00:47:46;5.07;91.25
67799;SHT30;54596;43.216;27.904;2023-11-21T00:50:12;5.04;91.26
67799;SHT30;54596;43.216;27.904;2023-11-21T00:52:37;4.99;91.36
67799;SHT30;54596;43.216;27.904;2023-11-21T00:55:04;4.96;91.50
67799;SHT30;54596;43.216;27.904;2023-11-21T00:57:32;4.92;91.61
67799;SHT30;54596;43.216;27.904;2023-11-21T00:59:58;4.91;91.73
67799;SHT30;54596;43.216;27.904;2023-11-21T01:02:23;4.89;91.87
67799;SHT30;54596;43.216;27.904;2023-11-21T01:04:50;4.92;92.10
67799;SHT30;54596;43.216;27.904;2023-11-21T01:07:16;4.92;92.35
67799;SHT30;54596;43.216;27.904;2023-11-21T01:09:41;4.95;92.27
67799;SHT30;54596;43.216;27.904;2023-11-21T01:12:07;4.99;92.20
67799;SHT30;54596;43.216;27.904;2023-11-21T01:14:32;5.01;92.23
67799;SHT30;54596;43.216;27.904;2023-11-21T01:16:58;4.95;92.07
67799;SHT30;54596;43.216;27.904;2023-11-21T01:19:23;4.98;92.00
67799;SHT30;54596;43.216;27.904;2023-11-21T01:21:49;5.01;91.97
67799;SHT30;54596;43.216;27.904;2023-11-21T01:24:14;4.96;92.10
67799;SHT30;54596;43.216;27.904;2023-11-21T01:26:40;4.99;92.40
67799;SHT30;54596;43.216;27.904;2023-11-21T01:29:05;5.04;92.35
67799;SHT30;54596;43.216;27.904;2023-11-21T01:31:31;5.05;92.30
67799;SHT30;54596;43.216;27.904;2023-11-21T01:33:56;5.12;92.25
67799;SHT30;54596;43.216;27.904;2023-11-21T01:36:22;5.16;92.09
67799;SHT30;54596;43.216;27.904;2023-11-21T01:38:48;5.18;92.12
67799;SHT30;54596;43.216;27.904;2023-11-21T01:41:14;5.19;92.01
67799;SHT30;54596;43.216;27.904;2023-11-21T01:43:41;5.20;91.85
67799;SHT30;54596;43.216;27.904;2023-11-21T01:46:08;5.19;91.88
67799;SHT30;54596;43.216;27.904;2023-11-21T01:48:34;5.23;91.74
67799;SHT30;54596;43.216;27.904;2023-11-21T01:51:00;5.22;91.73
67799;SHT30;54596;43.216;27.904;2023-11-21T01:53:26;5.25;91.72
67799;SHT30;54596;43.216;27.904;2023-11-21T01:55:53;5.22;91.72
67799;SHT30;54596;43.216;27.904;2023-11-21T01:58:20;5.19;91.73
67799;SHT30;54596;43.216;27.904;2023-11-21T02:00:47;5.23;91.67
67799;SHT30;54596;43.216;27.904;2023-11-21T02:03:15;5.22;91.73
67799;SHT30;54596;43.216;27.904;2023-11-21T02:05:41;5.23;91.67
67799;SHT30;54596;43.216;27.904;2023-11-21T02:08:07;5.20;91.63
67799;SHT30;54596;43.216;27.904;2023-11-21T02:10:34;5.19;91.60
67799;SHT30;54596;43.216;27.904;2023-11-21T02:13:02;5.20;91.54
67799;SHT30;54596;43.216;27.904;2023-11-21T02:15:28;5.18;91.60
67799;SHT30;54596;43.216;27.904;2023-11-21T02:17:54;5.19;91.61
67799;SHT30;54596;43.216;27.904;2023-11-21T02:20:21;5.19;91.70
67799;SHT30;54596;43.216;27.904;2023-11-21T02:22:54;5.20;91.78
67799;SHT30;54596;43.216;27.904;2023-11-21T02:25:28;5.22;91.90
67799;SHT30;54596;43.216;27.904;2023-11-21T02:27:59;5.26;91.92
67799;SHT30;54596;43.216;27.904;2023-11-21T02:30:25;5.23;91.91
67799;SHT30;54596;43.216;27.904;2023-11-21T02:32:51;5.23;91.94
67799;SHT30;54596;43.216;27.904;2023-11-21T02:35:20;5.27;91.95
67799;SHT30;54596;43.216;27.904;2023-11-21T02:37:47;5.26;92.08
67799;SHT30;54596;43.216;27.904;2023-11-21T02:40:12;5.25;92.11
67799;SHT30;54596;43.216;27.904;2023-11-21T02:42:41;5.26;92.22
67799;SHT30;54596;43.216;27.904;2023-11-21T02:45:07;5.26;92.21
67799;SHT30;54596;43.216;27.904;2023-11-21T02:47:33;5.29;92.17
67799;SHT30;54596;43.216;27.904;2023-11-21T02:49:59;5.33;92.24
67799;SHT30;54596;43.216;27.904;2023-11-21T02:52:25;5.30;92.29
67799;SHT30;54596;43.216;27.904;2023-11-21T02:54:50;5.33;92.24
67799;SHT30;54596;43.216;27.904;2023-11-21T02:57:16;5.35;92.38
67799;SHT30;54596;43.216;27.904;2023-11-21T02:59:42;5.35;92.42
67799;SHT30;54596;43.216;27.904;2023-11-21T03:02:07;5.40;92.34
67799;SHT30;54596;43.216;27.904;2023-11-21T03:04:34;5.43;92.41
67799;SHT30;54596;43.216;27.904;2023-11-21T03:07:00;5.55;92.38
67799;SHT30;54596;43.216;27.904;2023-11-21T03:09:25;5.57;92.32
67799;SHT30;54596;43.216;27.904;2023-11-21T03:11:52;5.64;92.21
67799;SHT30;54596;43.216;27.904;2023-11-21T03:14:18;5.77;91.93
67799;SHT30;54596;43.216;27.904;2023-11-21T03:16:43;5.77;91.82
67799;SHT30;54596;43.216;27.904;2023-11-21T03:19:11;5.84;91.83
67799;SHT30;54596;43.216;27.904;2023-11-21T03:21:36;5.85;91.69
67799;SHT30;54596;43.216;27.904;2023-11-21T03:24:02;5.81;91.55
67799;SHT30;54596;43.216;27.904;2023-11-21T03:26:28;5.82;91.52
67799;SHT30;54596;43.216;27.904;2023-11-21T03:28:54;5.82;91.33
67799;SHT30;54596;43.216;27.904;2023-11-21T03:31:20;5.78;91.34
67799;SHT30;54596;43.216;27.904;2023-11-21T03:33:46;5.78;91.41
67799;SHT30;54596;43.216;27.904;2023-11-21T03:36:12;5.77;91.48
67799;SHT30;54596;43.216;27.904;2023-11-21T03:38:40;5.78;91.46
67799;SHT30;54596;43.216;27.904;2023-11-21T03:41:05;5.81;91.46
67799;SHT30;54596;43.216;27.904;2023-11-21T03:43:31;5.85;91.43
67799;SHT30;54596;43.216;27.904;2023-11-21T03:45:57;5.85;91.43
67799;SHT30;54596;43.216;27.904;2023-11-21T03:48:22;5.85;91.52
67799;SHT30;54596;43.216;27.904;2023-11-21T03:50:48;5.88;91.54
67799;SHT30;54596;43.216;27.904;2023-11-21T03:53:14;5.94;91.46
67799;SHT30;54596;43.216;27.904;2023-11-21T03:55:39;6.08;91.46
67799;SHT30;54596;43.216;27.904;2023-11-21T03:58:05;6.01;91.06
67799;SHT30;54596;43.216;27.904;2023-11-21T04:00:31;5.88;91.18
67799;SHT30;54596;43.216;27.904;2023-11-21T04:02:56;5.88;91.56
67799;SHT30;54596;43.216;27.904;2023-11-21T04:05:23;5.79;91.47
67799;SHT30;54596;43.216;27.904;2023-11-21T04:07:51;5.77;92.16
67799;SHT30;54596;43.216;27.904;2023-11-21T04:10:18;5.71;92.12
67799;SHT30;54596;43.216;27.904;2023-11-21T04:12:43;5.65;92.22
67799;SHT30;54596;43.216;27.904;2023-11-21T04:15:10;5.57;92.20
67799;SHT30;54596;43.216;27.904;2023-11-21T04:17:36;5.46;92.41
67799;SHT30;54596;43.216;27.904;2023-11-21T04:20:03;5.40;92.36
67799;SHT30;54596;43.216;27.904;2023-11-21T04:22:33;5.33;92.26
67799;SHT30;54596;43.216;27.904;2023-11-21T04:24:59;5.29;92.26
67799;SHT30;54596;43.216;27.904;2023-11-21T04:27:24;5.32;92.21
67799;SHT30;54596;43.216;27.904;2023-11-21T04:29:50;5.25;92.20
67799;SHT30;54596;43.216;27.904;2023-11-21T04:32:15;5.18;92.18
67799;SHT30;54596;43.216;27.904;2023-11-21T04:34:41;5.16;92.10
67799;SHT30;54596;43.216;27.904;2023-11-21T04:37:06;5.11;92.05
67799;SHT30;54596;43.216;27.904;2023-11-21T04:39:32;5.09;92.06
67799;SHT30;54596;43.216;27.904;2023-11-21T04:41:57;5.05;92.07
67799;SHT30;54596;43.216;27.904;2023-11-21T04:44:23;5.02;92.05
67799;SHT30;54596;43.216;27.904;2023-11-21T04:46:48;4.99;92.25
67799;SHT30;54596;43.216;27.904;2023-11-21T04:49:15;4.99;92.39
67799;SHT30;54596;43.216;27.904;2023-11-21T04:51:40;4.98;92.50
67799;SHT30;54596;43.216;27.904;2023-11-21T04:54:06;4.95;92.57
67799;SHT30;54596;43.216;27.904;2023-11-21T04:56:31;4.95;93.06
67799;SHT30;54596;43.216;27.904;2023-11-21T04:58:57;4.98;93.03
67799;SHT30;54596;43.216;27.904;2023-11-21T05:01:22;4.95;93.12
67799;SHT30;54596;43.216;27.904;2023-11-21T05:03:48;4.96;93.10
67799;SHT30;54596;43.216;27.904;2023-11-21T05:06:14;4.95;93.10
67799;SHT30;54596;43.216;27.904;2023-11-21T05:08:40;4.94;93.01
67799;SHT30;54596;43.216;27.904;2023-11-21T05:11:06;4.92;92.95
67799;SHT30;54596;43.216;27.904;2023-11-21T05:13:36;4.91;92.93
67799;SHT30;54596;43.216;27.904;2023-11-21T05:16:01;4.92;92.93
67799;SHT30;54596;43.216;27.904;2023-11-21T05:18:30;4.91;92.92
67799;SHT30;54596;43.216;27.904;2023-11-21T05:20:56;4.92;92.93
67799;SHT30;54596;43.216;27.904;2023-11-21T05:23:22;4.88;92.82
67799;SHT30;54596;43.216;27.904;2023-11-21T05:25:47;4.94;92.82
67799;SHT30;54596;43.216;27.904;2023-11-21T05:28:13;4.96;92.81
67799;SHT30;54596;43.216;27.904;2023-11-21T05:30:39;5.04;92.91
67799;SHT30;54596;43.216;27.904;2023-11-21T05:33:05;5.04;92.93
67799;SHT30;54596;43.216;27.904;2023-11-21T05:35:30;5.11;92.88
67799;SHT30;54596;43.216;27.904;2023-11-21T05:37:56;5.15;92.95
67799;SHT30;54596;43.216;27.904;2023-11-21T05:40:22;5.22;92.95
67799;SHT30;54596;43.216;27.904;2023-11-21T05:42:48;5.27;92.91
67799;SHT30;54596;43.216;27.904;2023-11-21T05:45:14;5.32;92.88
67799;SHT30;54596;43.216;27.904;2023-11-21T05:47:44;5.39;92.70
67799;SHT30;54596;43.216;27.904;2023-11-21T05:50:13;5.44;92.60
67799;SHT30;54596;43.216;27.904;2023-11-21T05:52:45;5.53;92.59
67799;SHT30;54596;43.216;27.904;2023-11-21T05:55:11;5.65;92.41
67799;SHT30;54596;43.216;27.904;2023-11-21T05:57:38;5.75;92.03
67799;SHT30;54596;43.216;27.904;2023-11-21T06:02:41;5.99;91.52
67799;SHT30;54596;43.216;27.904;2023-11-21T06:05:07;6.08;90.80
67799;SHT30;54596;43.216;27.904;2023-11-21T06:07:34;6.79;89.74
67799;SHT30;54596;43.216;27.904;2023-11-21T06:10:04;8.47;85.39
67799;SHT30;54596;43.216;27.904;2023-11-21T06:12:34;9.58;81.35
67799;SHT30;54596;43.216;27.904;2023-11-21T06:15:02;10.49;77.41
67799;SHT30;54596;43.216;27.904;2023-11-21T06:17:33;11.84;74.38
67799;SHT30;54596;43.216;27.904;2023-11-21T06:20:05;12.95;70.62
67799;SHT30;54596;43.216;27.904;2023-11-21T06:22:38;13.36;69.46
67799;SHT30;54596;43.216;27.904;2023-11-21T06:25:04;13.45;67.19
67799;SHT30;54596;43.216;27.904;2023-11-21T06:27:34;14.00;67.12
67799;SHT30;54596;43.216;27.904;2023-11-21T06:30:01;14.49;65.44
67799;SHT30;54596;43.216;27.904;2023-11-21T06:32:27;14.92;64.46
67799;SHT30;54596;43.216;27.904;2023-11-21T06:34:55;15.53;63.31
67799;SHT30;54596;43.216;27.904;2023-11-21T06:37:20;15.68;62.85
67799;SHT30;54596;43.216;27.904;2023-11-21T06:39:49;15.67;62.88
67799;SHT30;54596;43.216;27.904;2023-11-21T06:42:17;15.47;63.30
67799;SHT30;54596;43.216;27.904;2023-11-21T06:44:45;15.80;62.78
67799;SHT30;54596;43.216;27.904;2023-11-21T06:47:10;15.83;62.65
67799;SHT30;54596;43.216;27.904;2023-11-21T06:49:36;16.63;61.07
67799;SHT30;54596;43.216;27.904;2023-11-21T06:52:01;16.49;61.26
67799;SHT30;54596;43.216;27.904;2023-11-21T06:54:30;16.67;61.11
67799;SHT30;54596;43.216;27.904;2023-11-21T06:56:56;17.08;60.04
67799;SHT30;54596;43.216;27.904;2023-11-21T06:59:22;17.04;60.26
67799;SHT30;54596;43.216;27.904;2023-11-21T07:01:47;17.19;60.10
67799;SHT30;54596;43.216;27.904;2023-11-21T07:04:13;17.39;60.21
67799;SHT30;54596;43.216;27.904;2023-11-21T07:06:38;17.87;59.01
67799;SHT30;54596;43.216;27.904;2023-11-21T07:09:04;17.78;58.92
67799;SHT30;54596;43.216;27.904;2023-11-21T07:11:29;18.13;58.66
67799;SHT30;54596;43.216;27.904;2023-11-21T07:13:55;18.39;58.17
67799;SHT30;54596;43.216;27.904;2023-11-21T07:16:20;18.43;58.22
67799;SHT30;54596;43.216;27.904;2023-11-21T07:18:47;17.95;59.05
67799;SHT30;54596;43.216;27.904;2023-11-21T07:21:14;18.57;58.15
67799;SHT30;54596;43.216;27.904;2023-11-21T07:23:41;18.30;58.73
67799;SHT30;54596;43.216;27.904;2023-11-21T07:26:06;18.51;58.33
67799;SHT30;54596;43.216;27.904;2023-11-21T07:28:35;18.71;58.27
67799;SHT30;54596;43.216;27.904;2023-11-21T07:31:01;18.64;58.58
67799;SHT30;54596;43.216;27.904;2023-11-21T07:33:27;18.72;58.88
67799;SHT30;54596;43.216;27.904;2023-11-21T07:35:52;18.89;58.42
67799;SHT30;54596;43.216;27.904;2023-11-21T07:38:18;19.06;58.03
67799;SHT30;54596;43.216;27.904;2023-11-21T07:40:43;18.89;58.01
67799;SHT30;54596;43.216;27.904;2023-11-21T07:43:09;19.03;58.07
67799;SHT30;54596;43.216;27.904;2023-11-21T07:45:36;19.19;57.78
67799;SHT30;54596;43.216;27.904;2023-11-21T07:48:01;19.60;56.90
67799;SHT30;54596;43.216;27.904;2023-11-21T07:50:28;20.27;55.67
67799;SHT30;54596;43.216;27.904;2023-11-21T07:52:55;20.54;55.19
67799;SHT30;54596;43.216;27.904;2023-11-21T07:55:20;20.99;54.46
67799;SHT30;54596;43.216;27.904;2023-11-21T07:57:46;20.61;54.75
67799;SHT30;54596;43.216;27.904;2023-11-21T08:00:12;21.59;53.32
67799;SHT30;54596;43.216;27.904;2023-11-21T08:02:40;21.88;52.43
67799;SHT30;54596;43.216;27.904;2023-11-21T08:05:11;22.24;52.01
67799;SHT30;54596;43.216;27.904;2023-11-21T08:07:37;21.26;53.28
67799;SHT30;54596;43.216;27.904;2023-11-21T08:10:03;21.99;52.11
67799;SHT30;54596;43.216;27.904;2023-11-21T08:12:30;22.47;51.11
67799;SHT30;54596;43.216;27.904;2023-11-21T08:14:59;22.45;51.06
67799;SHT30;54596;43.216;27.904;2023-11-21T08:17:25;22.24;50.96
67799;SHT30;54596;43.216;27.904;2023-11-21T08:19:51;22.00;51.85
67799;SHT30;54596;43.216;27.904;2023-11-21T08:22:16;20.39;53.65
67799;SHT30;54596;43.216;27.904;2023-11-21T08:24:44;20.55;54.52
67799;SHT30;54596;43.216;27.904;2023-11-21T08:27:12;19.72;56.17
67799;SHT30;54596;43.216;27.904;2023-11-21T08:29:41;18.10;59.08
67799;SHT30;54596;43.216;27.904;2023-11-21T08:32:07;17.43;60.73
67799;SHT30;54596;43.216;27.904;2023-11-21T08:34:32;16.88;61.69
67799;SHT30;54596;43.216;27.904;2023-11-21T08:36:58;16.59;62.78
67799;SHT30;54596;43.216;27.904;2023-11-21T08:39:24;16.15;63.69
67799;SHT30;54596;43.216;27.904;2023-11-21T08:41:50;15.71;64.94
67799;SHT30;54596;43.216;27.904;2023-11-21T08:44:16;15.76;65.06
67799;SHT30;54596;43.216;27.904;2023-11-21T08:46:44;15.85;64.87
67799;SHT30;54596;43.216;27.904;2023-11-21T08:49:13;15.60;65.51
67799;SHT30;54596;43.216;27.904;2023-11-21T08:51:40;15.57;65.05
67799;SHT30;54596;43.216;27.904;2023-11-21T08:54:06;15.57;65.10
67799;SHT30;54596;43.216;27.904;2023-11-21T08:56:36;15.43;65.39
67799;SHT30;54596;43.216;27.904;2023-11-21T08:59:01;15.40;65.71
67799;SHT30;54596;43.216;27.904;2023-11-21T09:01:31;15.38;65.71
67799;SHT30;54596;43.216;27.904;2023-11-21T09:03:57;15.51;65.69
67799;SHT30;54596;43.216;27.904;2023-11-21T09:06:23;15.44;66.29
67799;SHT30;54596;43.216;27.904;2023-11-21T09:08:49;15.22;65.69
67799;SHT30;54596;43.216;27.904;2023-11-21T09:11:15;15.33;65.71
67799;SHT30;54596;43.216;27.904;2023-11-21T09:13:40;15.29;64.73
67799;SHT30;54596;43.216;27.904;2023-11-21T09:16:06;15.18;64.05
67799;SHT30;54596;43.216;27.904;2023-11-21T09:18:32;15.25;63.54
67799;SHT30;54596;43.216;27.904;2023-11-21T09:20:57;15.32;63.36
67799;SHT30;54596;43.216;27.904;2023-11-21T09:23:24;15.22;63.76
67799;SHT30;54596;43.216;27.904;2023-11-21T09:25:49;15.35;63.90
67799;SHT30;54596;43.216;27.904;2023-11-21T09:28:17;15.47;63.77
67799;SHT30;54596;43.216;27.904;2023-11-21T09:30:43;15.44;64.10
67799;SHT30;54596;43.216;27.904;2023-11-21T09:33:09;15.24;64.69
67799;SHT30;54596;43.216;27.904;2023-11-21T09:35:38;15.16;64.90
67799;SHT30;54596;43.216;27.904;2023-11-21T09:38:04;15.15;65.20
67799;SHT30;54596;43.216;27.904;2023-11-21T09:40:36;15.14;65.56
67799;SHT30;54596;43.216;27.904;2023-11-21T09:43:09;14.99;65.15
67799;SHT30;54596;43.216;27.904;2023-11-21T09:45:45;14.85;65.35
67799;SHT30;54596;43.216;27.904;2023-11-21T09:48:11;14.91;65.66
67799;SHT30;54596;43.216;27.904;2023-11-21T09:50:37;14.81;65.78
67799;SHT30;54596;43.216;27.904;2023-11-21T09:55:42;14.94;64.72
67799;SHT30;54596;43.216;27.904;2023-11-21T09:58:09;14.80;64.62
67799;SHT30;54596;43.216;27.904;2023-11-21T10:00:43;14.62;65.48
67799;SHT30;54596;43.216;27.904;2023-11-21T10:03:09;14.71;65.82
67799;SHT30;54596;43.216;27.904;2023-11-21T10:05:36;14.63;66.42
67799;SHT30;54596;43.216;27.904;2023-11-21T10:08:04;14.56;65.90
67799;SHT30;54596;43.216;27.904;2023-11-21T10:10:32;14.47;65.96
67799;SHT30;54596;43.216;27.904;2023-11-21T10:13:02;14.53;66.04
67799;SHT30;54596;43.216;27.904;2023-11-21T10:15:29;14.59;65.76
67799;SHT30;54596;43.216;27.904;2023-11-21T10:17:55;14.45;65.68
67799;SHT30;54596;43.216;27.904;2023-11-21T10:20:23;14.43;65.27
67799;SHT30;54596;43.216;27.904;2023-11-21T10:22:50;14.59;65.76
67799;SHT30;54596;43.216;27.904;2023-11-21T10:25:15;14.60;66.24
67799;SHT30;54596;43.216;27.904;2023-11-21T10:27:42;14.69;66.57
67799;SHT30;54596;43.216;27.904;2023-11-21T10:30:09;14.79;66.38
67799;SHT30;54596;43.216;27.904;2023-11-21T10:32:41;14.83;66.10
67799;SHT30;54596;43.216;27.904;2023-11-21T10:35:09;14.85;65.91
67799;SHT30;54596;43.216;27.904;2023-11-21T10:37:40;14.92;65.70
67799;SHT30;54596;43.216;27.904;2023-11-21T10:40:07;15.09;66.06
67799;SHT30;54596;43.216;27.904;2023-11-21T10:42:33;15.22;65.15
67799;SHT30;54596;43.216;27.904;2023-11-21T10:44:59;15.39;65.60
67799;SHT30;54596;43.216;27.904;2023-11-21T10:47:26;15.39;65.66
67799;SHT30;54596;43.216;27.904;2023-11-21T10:49:52;15.43;65.18
67799;SHT30;54596;43.216;27.904;2023-11-21T10:52:20;15.64;64.62
67799;SHT30;54596;43.216;27.904;2023-11-21T10:54:46;15.66;64.35
67799;SHT30;54596;43.216;27.904;2023-11-21T10:57:17;15.76;64.17
67799;SHT30;54596;43.216;27.904;2023-11-21T10:59:46;15.68;64.71
67799;SHT30;54596;43.216;27.904;2023-11-21T11:02:22;15.67;65.05
67799;SHT30;54596;43.216;27.904;2023-11-21T11:04:52;15.56;65.32
67799;SHT30;54596;43.216;27.904;2023-11-21T11:07:17;15.51;64.76
67799;SHT30;54596;43.216;27.904;2023-11-21T11:09:45;15.50;65.58
67799;SHT30;54596;43.216;27.904;2023-11-21T11:12:13;15.44;65.26
67799;SHT30;54596;43.216;27.904;2023-11-21T11:14:40;15.36;65.41
67799;SHT30;54596;43.216;27.904;2023-11-21T11:17:07;15.33;65.31
67799;SHT30;54596;43.216;27.904;2023-11-21T11:19:34;15.25;65.48
67799;SHT30;54596;43.216;27.904;2023-11-21T11:22:29;15.24;65.35
67799;SHT30;54596;43.216;27.904;2023-11-21T11:25:25;15.24;65.27
67799;SHT30;54596;43.216;27.904;2023-11-21T11:28:04;15.22;65.20
67799;SHT30;54596;43.216;27.904;2023-11-21T11:33:37;15.25;64.65
67799;SHT30;54596;43.216;27.904;2023-11-21T11:38:46;15.21;64.59
67799;SHT30;54596;43.216;27.904;2023-11-21T11:41:24;15.24;64.32
67799;SHT30;54596;43.216;27.904;2023-11-21T11:43:50;15.29;64.27
67799;SHT30;54596;43.216;27.904;2023-11-21T11:46:16;15.32;64.02
67799;SHT30;54596;43.216;27.904;2023-11-21T11:48:41;15.32;63.69
67799;SHT30;54596;43.216;27.904;2023-11-21T11:51:11;15.31;63.70
67799;SHT30;54596;43.216;27.904;2023-11-21T11:53:41;15.31;63.48
67799;SHT30;54596;43.216;27.904;2023-11-21T11:56:33;15.26;63.52
67799;SHT30;54596;43.216;27.904;2023-11-21T11:59:04;15.31;63.08
67799;SHT30;54596;43.216;27.904;2023-11-21T12:01:32;15.28;63.05
67799;SHT30;54596;43.216;27.904;2023-11-21T12:07:05;15.36;62.62
67799;SHT30;54596;43.216;27.904;2023-11-21T12:09:31;15.26;64.32
67799;SHT30;54596;43.216;27.904;2023-11-21T12:11:57;15.21;66.32
67799;SHT30;54596;43.216;27.904;2023-11-21T12:14:23;15.01;67.69
67799;SHT30;54596;43.216;27.904;2023-11-21T12:16:49;14.95;68.01
67799;SHT30;54596;43.216;27.904;2023-11-21T12:19:14;14.90;67.75
67799;SHT30;54596;43.216;27.904;2023-11-21T12:21:40;14.80;68.43
67799;SHT30;54596;43.216;27.904;2023-11-21T12:24:14;14.60;68.15
67799;SHT30;54596;43.216;27.904;2023-11-21T12:26:42;14.52;68.53
67799;SHT30;54596;43.216;27.904;2023-11-21T12:29:08;14.36;69.04
67799;SHT30;54596;43.216;27.904;2023-11-21T12:31:34;14.28;68.89
67799;SHT30;54596;43.216;27.904;2023-11-21T12:34:03;14.22;69.36
67799;SHT30;54596;43.216;27.904;2023-11-21T12:36:29;14.15;69.37
67799;SHT30;54596;43.216;27.904;2023-11-21T12:38:55;14.10;69.48
67799;SHT30;54596;43.216;27.904;2023-11-21T12:41:21;14.10;69.69
67799;SHT30;54596;43.216;27.904;2023-11-21T12:43:47;14.05;69.73
67799;SHT30;54596;43.216;27.904;2023-11-21T12:46:13;14.01;69.50
67799;SHT30;54596;43.216;27.904;2023-11-21T12:48:44;14.04;69.49
67799;SHT30;54596;43.216;27.904;2023-11-21T12:51:11;14.01;69.56
67799;SHT30;54596;43.216;27.904;2023-11-21T12:53:38;14.02;69.77
67799;SHT30;54596;43.216;27.904;2023-11-21T12:56:10;14.04;69.84
67799;SHT30;54596;43.216;27.904;2023-11-21T12:58:37;14.01;69.78
67799;SHT30;54596;43.216;27.904;2023-11-21T13:01:05;13.98;69.73
67799;SHT30;54596;43.216;27.904;2023-11-21T13:03:31;13.97;70.03
67799;SHT30;54596;43.216;27.904;2023-11-21T13:05:58;13.88;70.12
67799;SHT30;54596;43.216;27.904;2023-11-21T13:08:25;13.85;70.45
67799;SHT30;54596;43.216;27.904;2023-11-21T13:10:53;13.80;70.19
67799;SHT30;54596;43.216;27.904;2023-11-21T13:13:20;13.80;70.32
67799;SHT30;54596;43.216;27.904;2023-11-21T13:15:49;13.76;70.33
67799;SHT30;54596;43.216;27.904;2023-11-21T13:18:15;13.73;70.20
67799;SHT30;54596;43.216;27.904;2023-11-21T13:20:42;13.77;69.77
67799;SHT30;54596;43.216;27.904;2023-11-21T13:23:09;13.80;69.85
67799;SHT30;54596;43.216;27.904;2023-11-21T13:25:40;13.87;69.50
67799;SHT30;54596;43.216;27.904;2023-11-21T13:28:11;13.90;69.32
67799;SHT30;54596;43.216;27.904;2023-11-21T13:30:37;13.93;69.06
67799;SHT30;54596;43.216;27.904;2023-11-21T13:33:05;13.97;68.75
67799;SHT30;54596;43.216;27.904;2023-11-21T13:35:32;14.00;68.70
67799;SHT30;54596;43.216;27.904;2023-11-21T13:38:11;13.98;69.06
67799;SHT30;54596;43.216;27.904;2023-11-21T13:40:38;13.97;69.00
67799;SHT30;54596;43.216;27.904;2023-11-21T13:43:16;13.95;69.23
67799;SHT30;54596;43.216;27.904;2023-11-21T13:45:43;13.93;69.59
67799;SHT30;54596;43.216;27.904;2023-11-21T13:48:10;13.91;69.54
67799;SHT30;54596;43.216;27.904;2023-11-21T13:50:36;13.90;69.89
67799;SHT30;54596;43.216;27.904;2023-11-21T13:53:03;13.85;70.01
67799;SHT30;54596;43.216;27.904;2023-11-21T13:55:53;13.80;70.11
67799;SHT30;54596;43.216;27.904;2023-11-21T13:58:25;13.70;70.79
67799;SHT30;54596;43.216;27.904;2023-11-21T14:01:11;13.63;71.02
67799;SHT30;54596;43.216;27.904;2023-11-21T14:04:09;13.53;71.62
67799;SHT30;54596;43.216;27.904;2023-11-21T14:06:45;13.50;72.04
67799;SHT30;54596;43.216;27.904;2023-11-21T14:09:20;13.43;72.16
67799;SHT30;54596;43.216;27.904;2023-11-21T14:11:55;13.38;72.45
67799;SHT30;54596;43.216;27.904;2023-11-21T14:14:23;13.34;72.58
67799;SHT30;54596;43.216;27.904;2023-11-21T14:16:50;13.32;72.67
67799;SHT30;54596;43.216;27.904;2023-11-21T14:19:16;13.34;72.39
67799;SHT30;54596;43.216;27.904;2023-11-21T14:21:45;13.28;72.71
67799;SHT30;54596;43.216;27.904;2023-11-21T14:24:12;13.25;72.92
67799;SHT30;54596;43.216;27.904;2023-11-21T14:26:41;13.25;73.17
67799;SHT30;54596;43.216;27.904;2023-11-21T14:29:08;13.25;73.34
67799;SHT30;54596;43.216;27.904;2023-11-21T14:31:34;13.21;73.36
67799;SHT30;54596;43.216;27.904;2023-11-21T14:34:00;13.19;73.74
67799;SHT30;54596;43.216;27.904;2023-11-21T14:36:32;13.15;73.90
67799;SHT30;54596;43.216;27.904;2023-11-21T14:38:57;13.15;74.31
67799;SHT30;54596;43.216;27.904;2023-11-21T14:41:23;13.10;74.76
67799;SHT30;54596;43.216;27.904;2023-11-21T14:43:53;13.05;75.28
67799;SHT30;54596;43.216;27.904;2023-11-21T14:46:20;13.00;76.06
67799;SHT30;54596;43.216;27.904;2023-11-21T14:48:46;12.95;76.81
67799;SHT30;54596;43.216;27.904;2023-11-21T14:51:28;12.86;77.80
67799;SHT30;54596;43.216;27.904;2023-11-21T14:54:01;12.84;78.33
67799;SHT30;54596;43.216;27.904;2023-11-21T14:56:34;12.75;78.73
67799;SHT30;54596;43.216;27.904;2023-11-21T14:59:02;12.73;79.05
67799;SHT30;54596;43.216;27.904;2023-11-21T15:01:34;12.70;79.42
67799;SHT30;54596;43.216;27.904;2023-11-21T15:04:21;12.66;79.73
67799;SHT30;54596;43.216;27.904;2023-11-21T15:06:59;12.62;80.01
67799;SHT30;54596;43.216;27.904;2023-11-21T15:09:25;12.59;80.20
67799;SHT30;54596;43.216;27.904;2023-11-21T15:12:04;12.56;80.36
67799;SHT30;54596;43.216;27.904;2023-11-21T15:14:41;12.50;80.80
67799;SHT30;54596;43.216;27.904;2023-11-21T15:17:07;12.50;81.15
67799;SHT30;54596;43.216;27.904;2023-11-21T15:19:32;12.46;81.49
67799;SHT30;54596;43.216;27.904;2023-11-21T15:21:59;12.42;81.64
67799;SHT30;54596;43.216;27.904;2023-11-21T15:24:25;12.41;82.13
67799;SHT30;54596;43.216;27.904;2023-11-21T15:26:50;12.36;82.64
67799;SHT30;54596;43.216;27.904;2023-11-21T15:29:16;12.31;82.81
67799;SHT30;54596;43.216;27.904;2023-11-21T15:31:42;12.28;83.08
67799;SHT30;54596;43.216;27.904;2023-11-21T15:34:14;12.21;83.59
67799;SHT30;54596;43.216;27.904;2023-11-21T15:36:40;12.18;83.99
67799;SHT30;54596;43.216;27.904;2023-11-21T15:39:05;12.15;84.37
67799;SHT30;54596;43.216;27.904;2023-11-21T15:41:32;12.15;84.65